createdAt,value
2018-01-22T00:00:29.272Z,0
2018-01-22T00:01:39.504Z,0
2018-01-22T00:02:49.889Z,0
2018-01-22T00:04:00.173Z,0
2018-01-22T00:05:10.390Z,0
2018-01-22T00:06:20.577Z,0
2018-01-22T00:07:30.711Z,0
2018-01-22T00:08:40.892Z,0
2018-01-22T00:09:51.155Z,0
2018-01-22T00:11:01.422Z,0
2018-01-22T00:12:11.606Z,0
2018-01-22T00:13:21.818Z,0
2018-01-22T00:14:31.989Z,0
2018-01-22T00:15:42.350Z,0
2018-01-22T00:16:52.614Z,0
2018-01-22T00:18:02.774Z,0
2018-01-22T00:19:12.908Z,0
2018-01-22T00:20:23.068Z,0
2018-01-22T00:21:33.239Z,0
2018-01-22T00:22:43.333Z,0
2018-01-22T00:23:53.524Z,0
2018-01-22T00:25:03.407Z,0
2018-01-22T00:26:13.530Z,0
2018-01-22T00:27:23.646Z,0
2018-01-22T00:28:33.801Z,0
2018-01-22T00:29:44.016Z,0
2018-01-22T00:30:54.221Z,0
2018-01-22T00:32:04.454Z,0
2018-01-22T00:33:14.776Z,0
2018-01-22T00:34:24.916Z,0
2018-01-22T00:35:35.069Z,0
2018-01-22T00:36:45.221Z,0
2018-01-22T00:37:55.484Z,0
2018-01-22T00:39:05.670Z,0
2018-01-22T00:40:15.553Z,0
2018-01-22T00:41:25.875Z,0
2018-01-22T00:42:36.034Z,0
2018-01-22T00:43:46.177Z,0
2018-01-22T00:44:56.288Z,0
2018-01-22T00:46:06.418Z,0
2018-01-22T00:47:16.548Z,0
2018-01-22T00:48:26.717Z,0
2018-01-22T00:49:36.613Z,0
2018-01-22T00:50:46.772Z,0
2018-01-22T00:51:56.896Z,0
2018-01-22T00:53:07.064Z,0
2018-01-22T00:54:17.293Z,0
2018-01-22T00:55:27.449Z,0
2018-01-22T00:56:37.574Z,0
2018-01-22T00:57:47.458Z,0
2018-01-22T00:58:57.586Z,0
2018-01-22T01:00:07.743Z,0
2018-01-22T01:01:17.937Z,0
2018-01-22T01:02:28.084Z,0
2018-01-22T01:03:38.207Z,0
2018-01-22T01:04:48.325Z,0
2018-01-22T01:05:58.455Z,0
2018-01-22T01:07:08.660Z,0
2018-01-22T01:08:18.831Z,0
2018-01-22T01:09:29.093Z,0
2018-01-22T01:10:39.242Z,0
2018-01-22T01:11:49.474Z,0
2018-01-22T01:12:59.393Z,0
2018-01-22T01:14:09.570Z,0
2018-01-22T01:15:19.700Z,0
2018-01-22T01:16:29.947Z,0
2018-01-22T01:17:40.254Z,0
2018-01-22T01:18:50.419Z,0
2018-01-22T01:20:00.668Z,0
2018-01-22T01:21:10.818Z,0
2018-01-22T01:22:21.021Z,0
2018-01-22T01:23:31.150Z,0
2018-01-22T01:24:41.057Z,0
2018-01-22T01:25:51.198Z,0
2018-01-22T01:27:01.422Z,0
2018-01-22T01:28:11.577Z,0
2018-01-22T01:29:21.789Z,0
2018-01-22T01:30:31.970Z,0
2018-01-22T01:31:42.105Z,0
2018-01-22T01:32:52.224Z,0
2018-01-22T01:34:02.341Z,0
2018-01-22T01:35:12.563Z,0
2018-01-22T01:36:22.447Z,0
2018-01-22T01:37:32.604Z,0
2018-01-22T01:38:42.766Z,0
2018-01-22T01:39:52.927Z,0
2018-01-22T01:41:03.077Z,0
2018-01-22T01:42:13.209Z,0
2018-01-22T01:43:23.316Z,0
2018-01-22T01:44:33.459Z,0
2018-01-22T01:45:43.575Z,0
2018-01-22T01:46:53.737Z,0
2018-01-22T01:48:03.887Z,0
2018-01-22T01:49:14.019Z,0
2018-01-22T01:50:24.150Z,0
2018-01-22T01:51:34.301Z,0
2018-01-22T01:52:44.414Z,0
2018-01-22T01:53:54.523Z,0
2018-01-22T01:55:04.647Z,0
2018-01-22T01:56:14.680Z,0
2018-01-22T01:57:24.534Z,0
2018-01-22T01:58:34.645Z,0
2018-01-22T01:59:44.792Z,0
2018-01-22T02:00:55.020Z,0
2018-01-22T02:02:05.243Z,0
2018-01-22T02:03:14.468Z,0
2018-01-22T02:04:24.627Z,0
2018-01-22T02:05:34.795Z,0
2018-01-22T02:06:44.900Z,0
2018-01-22T02:07:55.048Z,0
2018-01-22T02:09:05.198Z,0
2018-01-22T02:10:15.310Z,0
2018-01-22T02:11:25.483Z,0
2018-01-22T02:12:35.251Z,0
2018-01-22T02:13:45.404Z,0
2018-01-22T02:14:55.668Z,0
2018-01-22T02:16:05.807Z,0
2018-01-22T02:17:15.939Z,0
2018-01-22T02:18:26.057Z,0
2018-01-22T02:19:36.215Z,0
2018-01-22T02:20:46.344Z,0
2018-01-22T02:21:56.652Z,0
2018-01-22T02:23:06.765Z,0
2018-01-22T02:24:16.896Z,0
2018-01-22T02:25:27.044Z,0
2018-01-22T02:26:37.163Z,0
2018-01-22T02:27:47.302Z,0
2018-01-22T02:28:57.430Z,0
2018-01-22T02:30:07.663Z,0
2018-01-22T02:31:17.857Z,0
2018-01-22T02:32:27.952Z,0
2018-01-22T02:33:37.810Z,0
2018-01-22T02:34:47.956Z,0
2018-01-22T02:35:59.242Z,0
2018-01-22T02:37:09.399Z,0
2018-01-22T02:38:19.603Z,0
2018-01-22T02:39:29.775Z,0
2018-01-22T02:40:40.020Z,0
2018-01-22T02:41:49.821Z,0
2018-01-22T02:42:59.969Z,0
2018-01-22T02:44:10.202Z,0
2018-01-22T02:45:20.370Z,0
2018-01-22T02:46:30.541Z,0
2018-01-22T02:47:40.653Z,0
2018-01-22T02:48:50.778Z,0
2018-01-22T02:50:00.914Z,0
2018-01-22T02:51:11.184Z,0
2018-01-22T02:52:21.368Z,0
2018-01-22T02:53:31.470Z,0
2018-01-22T02:54:41.722Z,0
2018-01-22T02:55:52.808Z,0
2018-01-22T02:57:02.958Z,0
2018-01-22T02:58:12.821Z,0
2018-01-22T02:59:22.945Z,0
2018-01-22T03:00:33.049Z,0
2018-01-22T03:01:43.181Z,0
2018-01-22T03:02:53.391Z,0
2018-01-22T03:04:03.539Z,0
2018-01-22T03:05:13.714Z,0
2018-01-22T03:06:23.834Z,0
2018-01-22T03:07:33.932Z,0
2018-01-22T03:08:44.032Z,0
2018-01-22T03:09:54.144Z,0
2018-01-22T03:11:04.285Z,0
2018-01-22T03:12:14.484Z,0
2018-01-22T03:13:24.595Z,0
2018-01-22T03:14:34.766Z,0
2018-01-22T03:15:44.893Z,0
2018-01-22T03:16:55.177Z,0
2018-01-22T03:18:05.330Z,0
2018-01-22T03:19:15.494Z,0
2018-01-22T03:20:25.649Z,0
2018-01-22T03:21:35.828Z,0
2018-01-22T03:22:46.114Z,0
2018-01-22T03:23:56.262Z,0
2018-01-22T03:25:06.382Z,0
2018-01-22T03:26:16.499Z,0
2018-01-22T03:27:26.368Z,0
2018-01-22T03:28:36.480Z,0
2018-01-22T03:29:46.623Z,0
2018-01-22T03:30:56.798Z,0
2018-01-22T03:32:06.987Z,0
2018-01-22T03:33:17.160Z,0
2018-01-22T03:34:28.266Z,0
2018-01-22T03:35:38.593Z,0
2018-01-22T03:36:48.808Z,0
2018-01-22T03:37:59.052Z,0
2018-01-22T03:39:09.198Z,0
2018-01-22T03:40:19.002Z,0
2018-01-22T03:41:29.147Z,0
2018-01-22T03:42:40.259Z,0
2018-01-22T03:43:50.054Z,0
2018-01-22T03:45:00.180Z,0
2018-01-22T03:46:10.278Z,0
2018-01-22T03:47:20.426Z,0
2018-01-22T03:48:30.540Z,0
2018-01-22T03:49:40.664Z,0
2018-01-22T03:50:50.527Z,0
2018-01-22T03:52:00.794Z,0
2018-01-22T03:53:11.014Z,0
2018-01-22T03:54:21.234Z,0
2018-01-22T03:55:31.390Z,0
2018-01-22T03:56:41.571Z,0
2018-01-22T03:57:51.710Z,0
2018-01-22T03:59:01.823Z,0
2018-01-22T04:00:11.944Z,0
2018-01-22T04:01:22.054Z,0
2018-01-22T04:02:32.142Z,0
2018-01-22T04:03:42.344Z,0
2018-01-22T04:04:52.489Z,0
2018-01-22T04:06:02.586Z,0
2018-01-22T04:07:12.714Z,0
2018-01-22T04:08:22.894Z,0
2018-01-22T04:09:33.025Z,0
2018-01-22T04:10:43.138Z,0
2018-01-22T04:11:53.250Z,0
2018-01-22T04:13:03.343Z,0
2018-01-22T04:14:13.501Z,0
2018-01-22T04:15:23.641Z,0
2018-01-22T04:16:33.797Z,0
2018-01-22T04:17:44.067Z,0
2018-01-22T04:18:54.028Z,0
2018-01-22T04:20:04.135Z,0
2018-01-22T04:21:14.246Z,0
2018-01-22T04:22:24.480Z,0
2018-01-22T04:23:34.285Z,0
2018-01-22T04:24:44.456Z,0
2018-01-22T04:25:54.686Z,0
2018-01-22T04:27:04.808Z,0
2018-01-22T04:28:14.935Z,0
2018-01-22T04:29:25.073Z,0
2018-01-22T04:30:35.199Z,0
2018-01-22T04:31:45.393Z,0
2018-01-22T04:32:55.553Z,0
2018-01-22T04:34:05.788Z,0
2018-01-22T04:35:15.904Z,0
2018-01-22T04:36:26.071Z,0
2018-01-22T04:37:36.209Z,0
2018-01-22T04:38:46.352Z,0
2018-01-22T04:39:56.493Z,0
2018-01-22T04:41:06.615Z,0
2018-01-22T04:42:16.733Z,0
2018-01-22T04:43:26.890Z,0
2018-01-22T04:44:36.995Z,0
2018-01-22T04:45:47.123Z,0
2018-01-22T04:46:57.276Z,0
2018-01-22T04:48:07.558Z,0
2018-01-22T04:49:17.675Z,0
2018-01-22T04:50:27.947Z,0
2018-01-22T04:51:38.051Z,0
2018-01-22T04:52:48.249Z,0
2018-01-22T04:53:58.447Z,0
2018-01-22T04:55:08.569Z,0
2018-01-22T04:56:18.430Z,0
2018-01-22T04:57:28.571Z,0
2018-01-22T04:58:39.644Z,0
2018-01-22T04:59:49.756Z,0
2018-01-22T05:00:59.898Z,0
2018-01-22T05:02:10.106Z,0
2018-01-22T05:03:20.081Z,0
2018-01-22T05:04:30.175Z,0
2018-01-22T05:05:40.329Z,0
2018-01-22T05:06:50.486Z,0
2018-01-22T05:08:00.654Z,0
2018-01-22T05:09:11.765Z,0
2018-01-22T05:10:21.877Z,0
2018-01-22T05:11:31.483Z,0
2018-01-22T05:12:41.687Z,0
2018-01-22T05:13:51.563Z,0
2018-01-22T05:15:01.700Z,0
2018-01-22T05:16:11.808Z,0
2018-01-22T05:17:22.012Z,0
2018-01-22T05:18:32.258Z,0
2018-01-22T05:19:42.445Z,0
2018-01-22T05:20:52.623Z,0
2018-01-22T05:22:02.737Z,0
2018-01-22T05:23:12.910Z,0
2018-01-22T05:24:23.012Z,0
2018-01-22T05:25:33.245Z,0
2018-01-22T05:26:43.373Z,0
2018-01-22T05:27:53.609Z,0
2018-01-22T05:29:03.759Z,0
2018-01-22T05:30:13.961Z,0
2018-01-22T05:31:24.254Z,0
2018-01-22T05:32:34.377Z,0
2018-01-22T05:33:44.541Z,0
2018-01-22T05:34:54.788Z,0
2018-01-22T05:36:04.907Z,0
2018-01-22T05:37:15.110Z,0
2018-01-22T05:38:25.029Z,0
2018-01-22T05:39:35.412Z,0
2018-01-22T05:40:45.594Z,0
2018-01-22T05:41:55.736Z,0
2018-01-22T05:43:05.973Z,0
2018-01-22T05:44:16.117Z,0
2018-01-22T05:45:26.308Z,0
2018-01-22T05:46:36.452Z,0
2018-01-22T05:47:46.561Z,0
2018-01-22T05:48:56.730Z,0
2018-01-22T05:50:06.862Z,0
2018-01-22T05:51:16.995Z,0
2018-01-22T05:52:27.318Z,0
2018-01-22T05:53:37.452Z,0
2018-01-22T05:54:47.607Z,0
2018-01-22T05:55:57.712Z,0
2018-01-22T05:57:07.919Z,0
2018-01-22T05:58:19.028Z,0
2018-01-22T05:59:28.891Z,0
2018-01-22T06:00:39.025Z,0
2018-01-22T06:01:49.136Z,0
2018-01-22T06:02:59.242Z,0
2018-01-22T06:04:09.403Z,0
2018-01-22T06:05:19.735Z,0
2018-01-22T06:06:29.881Z,0
2018-01-22T06:07:40.089Z,0
2018-01-22T06:08:50.324Z,0
2018-01-22T06:10:00.535Z,0
2018-01-22T06:11:10.378Z,0
2018-01-22T06:12:20.524Z,0
2018-01-22T06:13:31.644Z,0
2018-01-22T06:14:41.868Z,0
2018-01-22T06:15:52.093Z,0
2018-01-22T06:17:01.998Z,0
2018-01-22T06:18:12.144Z,0
2018-01-22T06:19:22.266Z,0
2018-01-22T06:20:32.473Z,0
2018-01-22T06:21:42.680Z,0
2018-01-22T06:22:52.575Z,0
2018-01-22T06:24:02.791Z,0
2018-01-22T06:25:13.033Z,0
2018-01-22T06:26:23.318Z,0
2018-01-22T06:27:33.492Z,0
2018-01-22T06:28:43.607Z,0
2018-01-22T06:29:53.821Z,0
2018-01-22T06:31:03.695Z,0
2018-01-22T06:32:13.856Z,0
2018-01-22T06:33:24.036Z,0
2018-01-22T06:34:34.189Z,0
2018-01-22T06:35:44.387Z,0
2018-01-22T06:36:54.629Z,0
2018-01-22T06:38:04.756Z,0
2018-01-22T06:39:14.626Z,0
2018-01-22T06:40:24.933Z,0
2018-01-22T06:41:35.104Z,0
2018-01-22T06:42:45.322Z,0
2018-01-22T06:43:55.635Z,0
2018-01-22T06:45:05.783Z,0
2018-01-22T06:46:16.037Z,0
2018-01-22T06:47:26.265Z,0
2018-01-22T06:48:36.379Z,0
2018-01-22T06:49:46.603Z,0
2018-01-22T06:50:56.491Z,0
2018-01-22T06:52:06.600Z,0
2018-01-22T06:53:16.759Z,0
2018-01-22T06:54:28.087Z,0
2018-01-22T06:55:38.210Z,0
2018-01-22T06:56:48.455Z,0
2018-01-22T06:57:58.672Z,0
2018-01-22T06:59:08.853Z,0
2018-01-22T07:00:19.020Z,0
2018-01-22T07:01:29.187Z,0
2018-01-22T07:02:39.160Z,0
2018-01-22T07:03:49.363Z,0
2018-01-22T07:04:59.621Z,0
2018-01-22T07:06:09.780Z,0
2018-01-22T07:07:19.909Z,0
2018-01-22T07:08:30.091Z,0
2018-01-22T07:09:40.416Z,0
2018-01-22T07:10:50.616Z,5
2018-01-22T07:12:00.788Z,5
2018-01-22T07:13:10.893Z,5
2018-01-22T07:14:21.018Z,5
2018-01-22T07:15:31.133Z,5
2018-01-22T07:16:41.339Z,5
2018-01-22T07:17:51.473Z,5
2018-01-22T07:19:01.642Z,5
2018-01-22T07:20:11.678Z,5
2018-01-22T07:21:21.826Z,5
2018-01-22T07:22:31.941Z,10
2018-01-22T07:23:42.128Z,10
2018-01-22T07:24:52.310Z,10
2018-01-22T07:26:02.462Z,10
2018-01-22T07:27:12.631Z,10
2018-01-22T07:28:22.811Z,10
2018-01-22T07:29:32.936Z,15
2018-01-22T07:30:43.071Z,15
2018-01-22T07:31:53.193Z,15
2018-01-22T07:33:03.296Z,15
2018-01-22T07:34:13.460Z,15
2018-01-22T07:35:23.589Z,15
2018-01-22T07:36:33.700Z,20
2018-01-22T07:37:43.867Z,20
2018-01-22T07:38:53.730Z,20
2018-01-22T07:40:03.911Z,20
2018-01-22T07:41:14.058Z,25
2018-01-22T07:42:24.227Z,25
2018-01-22T07:43:34.401Z,30
2018-01-22T07:44:44.617Z,35
2018-01-22T07:45:54.811Z,35
2018-01-22T07:47:04.956Z,35
2018-01-22T07:48:15.130Z,35
2018-01-22T07:49:25.234Z,35
2018-01-22T07:50:35.094Z,35
2018-01-22T07:51:45.218Z,35
2018-01-22T07:52:55.338Z,35
2018-01-22T07:54:05.549Z,35
2018-01-22T07:55:15.660Z,35
2018-01-22T07:56:25.889Z,35
2018-01-22T07:57:36.026Z,30
2018-01-22T07:58:46.273Z,25
2018-01-22T07:59:56.083Z,25
2018-01-22T08:01:06.272Z,25
2018-01-22T08:02:16.464Z,30
2018-01-22T08:03:26.583Z,30
2018-01-22T08:04:36.693Z,30
2018-01-22T08:05:46.823Z,30
2018-01-22T08:06:56.944Z,30
2018-01-22T08:08:06.746Z,35
2018-01-22T08:09:16.571Z,35
2018-01-22T08:10:26.680Z,40
2018-01-22T08:11:36.797Z,45
2018-01-22T08:12:47.984Z,45
2018-01-22T08:13:57.874Z,45
2018-01-22T08:15:08.017Z,45
2018-01-22T08:16:18.191Z,45
2018-01-22T08:17:28.492Z,45
2018-01-22T08:18:38.613Z,50
2018-01-22T08:19:48.792Z,50
2018-01-22T08:20:58.945Z,50
2018-01-22T08:22:09.055Z,55
2018-01-22T08:23:18.884Z,55
2018-01-22T08:24:29.027Z,55
2018-01-22T08:25:39.029Z,55
2018-01-22T08:26:49.248Z,55
2018-01-22T08:28:00.148Z,55
2018-01-22T08:29:09.928Z,50
2018-01-22T08:30:20.078Z,50
2018-01-22T08:31:30.194Z,45
2018-01-22T08:32:40.366Z,40
2018-01-22T08:33:50.536Z,35
2018-01-22T08:35:00.765Z,35
2018-01-22T08:36:10.928Z,40
2018-01-22T08:37:21.085Z,45
2018-01-22T08:38:31.236Z,50
2018-01-22T08:39:41.324Z,50
2018-01-22T08:40:51.523Z,55
2018-01-22T08:42:01.743Z,55
2018-01-22T08:43:11.604Z,60
2018-01-22T08:44:21.738Z,60
2018-01-22T08:45:31.893Z,60
2018-01-22T08:46:42.090Z,60
2018-01-22T08:47:51.860Z,65
2018-01-22T08:49:02.032Z,75
2018-01-22T08:50:12.281Z,90
2018-01-22T08:51:22.462Z,105
2018-01-22T08:52:32.714Z,115
2018-01-22T08:53:42.871Z,130
2018-01-22T08:54:53.049Z,135
2018-01-22T08:56:03.043Z,135
2018-01-22T08:57:13.178Z,145
2018-01-22T08:58:24.288Z,145
2018-01-22T08:59:34.482Z,145
2018-01-22T09:00:44.690Z,145
2018-01-22T09:01:54.889Z,140
2018-01-22T09:03:05.085Z,125
2018-01-22T09:04:15.219Z,115
2018-01-22T09:05:25.332Z,105
2018-01-22T09:06:35.471Z,105
2018-01-22T09:07:45.621Z,105
2018-01-22T09:08:55.742Z,105
2018-01-22T09:10:05.519Z,105
2018-01-22T09:11:15.755Z,95
2018-01-22T09:12:26.049Z,100
2018-01-22T09:13:36.224Z,95
2018-01-22T09:14:46.439Z,90
2018-01-22T09:15:56.585Z,95
2018-01-22T09:17:06.799Z,95
2018-01-22T09:18:16.948Z,105
2018-01-22T09:19:27.087Z,110
2018-01-22T09:20:37.199Z,115
2018-01-22T09:21:47.339Z,125
2018-01-22T09:22:57.457Z,125
2018-01-22T09:24:07.607Z,125
2018-01-22T09:25:17.837Z,130
2018-01-22T09:26:27.958Z,135
2018-01-22T09:27:38.072Z,135
2018-01-22T09:28:48.192Z,135
2018-01-22T09:29:58.491Z,130
2018-01-22T09:31:08.635Z,125
2018-01-22T09:32:18.782Z,125
2018-01-22T09:33:28.922Z,125
2018-01-22T09:34:39.132Z,130
2018-01-22T09:35:48.750Z,130
2018-01-22T09:36:58.877Z,125
2018-01-22T09:38:08.993Z,115
2018-01-22T09:39:19.141Z,110
2018-01-22T09:40:29.330Z,105
2018-01-22T09:41:39.580Z,105
2018-01-22T09:42:49.870Z,105
2018-01-22T09:44:00.033Z,110
2018-01-22T09:45:10.237Z,110
2018-01-22T09:46:20.403Z,115
2018-01-22T09:47:30.619Z,120
2018-01-22T09:48:40.823Z,120
2018-01-22T09:49:51.035Z,130
2018-01-22T09:51:01.184Z,135
2018-01-22T09:52:11.377Z,140
2018-01-22T09:53:21.509Z,145
2018-01-22T09:54:31.638Z,145
2018-01-22T09:55:41.778Z,145
2018-01-22T09:56:51.978Z,150
2018-01-22T09:58:02.112Z,155
2018-01-22T09:59:12.243Z,155
2018-01-22T10:00:22.372Z,160
2018-01-22T10:01:32.518Z,160
2018-01-22T10:02:42.624Z,160
2018-01-22T10:03:52.754Z,160
2018-01-22T10:05:02.941Z,160
2018-01-22T10:06:13.178Z,160
2018-01-22T10:07:23.325Z,155
2018-01-22T10:08:33.521Z,145
2018-01-22T10:09:43.969Z,140
2018-01-22T10:10:54.124Z,145
2018-01-22T10:12:04.014Z,145
2018-01-22T10:13:14.162Z,155
2018-01-22T10:14:24.352Z,160
2018-01-22T10:15:34.489Z,155
2018-01-22T10:16:44.657Z,140
2018-01-22T10:17:54.884Z,130
2018-01-22T10:19:05.119Z,125
2018-01-22T10:20:15.315Z,125
2018-01-22T10:21:25.667Z,130
2018-01-22T10:22:35.779Z,135
2018-01-22T10:23:46.028Z,130
2018-01-22T10:24:56.283Z,125
2018-01-22T10:26:06.534Z,125
2018-01-22T10:27:16.747Z,135
2018-01-22T10:28:26.925Z,145
2018-01-22T10:29:37.123Z,160
2018-01-22T10:30:48.401Z,160
2018-01-22T10:31:58.576Z,155
2018-01-22T10:33:08.732Z,165
2018-01-22T10:34:18.956Z,165
2018-01-22T10:35:29.120Z,185
2018-01-22T10:36:39.261Z,200
2018-01-22T10:37:49.450Z,210
2018-01-22T10:38:59.575Z,230
2018-01-22T10:40:09.760Z,255
2018-01-22T10:41:20.039Z,265
2018-01-22T10:42:30.149Z,255
2018-01-22T10:43:40.329Z,220
2018-01-22T10:44:50.504Z,175
2018-01-22T10:46:00.785Z,145
2018-01-22T10:47:10.997Z,120
2018-01-22T10:48:21.224Z,105
2018-01-22T10:49:31.492Z,105
2018-01-22T10:50:41.787Z,105
2018-01-22T10:51:52.071Z,110
2018-01-22T10:53:02.216Z,115
2018-01-22T10:54:12.400Z,115
2018-01-22T10:55:22.622Z,115
2018-01-22T10:56:32.804Z,120
2018-01-22T10:57:42.980Z,125
2018-01-22T10:58:53.134Z,140
2018-01-22T11:00:03.375Z,165
2018-01-22T11:01:13.149Z,190
2018-01-22T11:02:23.479Z,230
2018-01-22T11:03:33.612Z,235
2018-01-22T11:04:43.745Z,200
2018-01-22T11:05:53.869Z,165
2018-01-22T11:07:04.018Z,150
2018-01-22T11:08:14.129Z,130
2018-01-22T11:09:24.271Z,135
2018-01-22T11:10:34.435Z,140
2018-01-22T11:11:44.679Z,145
2018-01-22T11:12:54.895Z,130
2018-01-22T11:14:05.126Z,120
2018-01-22T11:15:15.065Z,135
2018-01-22T11:16:25.222Z,140
2018-01-22T11:17:35.381Z,140
2018-01-22T11:18:45.503Z,145
2018-01-22T11:19:55.423Z,120
2018-01-22T11:21:05.189Z,130
2018-01-22T11:22:15.345Z,120
2018-01-22T11:23:25.463Z,130
2018-01-22T11:24:35.598Z,135
2018-01-22T11:25:45.756Z,135
2018-01-22T11:26:55.937Z,150
2018-01-22T11:28:06.086Z,160
2018-01-22T11:29:16.218Z,160
2018-01-22T11:30:26.399Z,155
2018-01-22T11:31:36.606Z,160
2018-01-22T11:32:46.740Z,170
2018-01-22T11:33:56.886Z,190
2018-01-22T11:35:07.150Z,190
2018-01-22T11:36:17.373Z,165
2018-01-22T11:37:27.519Z,165
2018-01-22T11:38:37.722Z,155
2018-01-22T11:39:47.845Z,180
2018-01-22T11:40:57.977Z,175
2018-01-22T11:42:08.140Z,175
2018-01-22T11:43:18.258Z,165
2018-01-22T11:44:28.419Z,170
2018-01-22T11:45:38.547Z,180
2018-01-22T11:46:48.683Z,180
2018-01-22T11:47:58.820Z,180
2018-01-22T11:49:08.975Z,170
2018-01-22T11:50:19.088Z,180
2018-01-22T11:51:29.294Z,165
2018-01-22T11:52:39.557Z,160
2018-01-22T11:53:49.887Z,165
2018-01-22T11:55:00.034Z,150
2018-01-22T11:56:10.276Z,135
2018-01-22T11:57:20.458Z,130
2018-01-22T11:58:30.640Z,115
2018-01-22T11:59:40.892Z,130
2018-01-22T12:00:51.050Z,120
2018-01-22T12:02:01.224Z,115
2018-01-22T12:03:11.533Z,120
2018-01-22T12:04:21.765Z,115
2018-01-22T12:05:32.028Z,125
2018-01-22T12:06:42.266Z,115
2018-01-22T12:07:52.545Z,115
2018-01-22T12:09:02.834Z,125
2018-01-22T12:10:12.983Z,145
2018-01-22T12:11:23.126Z,155
2018-01-22T12:12:33.273Z,195
2018-01-22T12:13:43.240Z,215
2018-01-22T12:14:53.416Z,260
2018-01-22T12:16:03.580Z,275
2018-01-22T12:17:13.775Z,295
2018-01-22T12:18:23.930Z,300
2018-01-22T12:19:34.084Z,325
2018-01-22T12:20:44.222Z,340
2018-01-22T12:21:54.350Z,350
2018-01-22T12:23:04.561Z,335
2018-01-22T12:24:14.727Z,365
2018-01-22T12:25:24.863Z,340
2018-01-22T12:26:34.984Z,335
2018-01-22T12:27:45.163Z,335
2018-01-22T12:28:55.337Z,295
2018-01-22T12:30:05.462Z,245
2018-01-22T12:31:15.592Z,195
2018-01-22T12:32:25.727Z,205
2018-01-22T12:33:35.858Z,225
2018-01-22T12:34:45.976Z,200
2018-01-22T12:35:56.127Z,195
2018-01-22T12:37:06.078Z,180
2018-01-22T12:38:16.270Z,155
2018-01-22T12:39:26.447Z,140
2018-01-22T12:40:36.605Z,115
2018-01-22T12:41:46.753Z,115
2018-01-22T12:42:56.870Z,100
2018-01-22T12:44:07.015Z,110
2018-01-22T12:45:17.157Z,130
2018-01-22T12:46:27.283Z,115
2018-01-22T12:47:37.483Z,115
2018-01-22T12:48:47.817Z,100
2018-01-22T12:49:57.993Z,100
2018-01-22T12:51:08.146Z,105
2018-01-22T12:52:18.288Z,95
2018-01-22T12:53:28.402Z,85
2018-01-22T12:54:39.582Z,90
2018-01-22T12:55:49.723Z,75
2018-01-22T12:56:59.874Z,75
2018-01-22T12:58:10.104Z,60
2018-01-22T12:59:20.331Z,65
2018-01-22T13:00:30.553Z,55
2018-01-22T13:01:40.432Z,55
2018-01-22T13:02:50.570Z,50
2018-01-22T13:04:00.783Z,50
2018-01-22T13:05:10.939Z,45
2018-01-22T13:06:20.760Z,50
2018-01-22T13:07:30.897Z,50
2018-01-22T13:08:41.089Z,60
2018-01-22T13:09:51.229Z,75
2018-01-22T13:11:01.487Z,85
2018-01-22T13:12:11.651Z,95
2018-01-22T13:13:21.966Z,110
2018-01-22T13:14:32.239Z,110
2018-01-22T13:15:42.468Z,110
2018-01-22T13:16:52.641Z,115
2018-01-22T13:18:02.801Z,110
2018-01-22T13:19:13.059Z,115
2018-01-22T13:20:23.253Z,115
2018-01-22T13:21:33.400Z,110
2018-01-22T13:22:43.637Z,105
2018-01-22T13:23:54.885Z,90
2018-01-22T13:25:05.192Z,90
2018-01-22T13:26:15.343Z,105
2018-01-22T13:27:25.531Z,100
2018-01-22T13:28:35.705Z,95
2018-01-22T13:29:46.128Z,75
2018-01-22T13:30:56.346Z,75
2018-01-22T13:32:06.556Z,75
2018-01-22T13:33:16.725Z,85
2018-01-22T13:34:26.912Z,80
2018-01-22T13:35:37.121Z,75
2018-01-22T13:36:47.284Z,75
2018-01-22T13:37:57.448Z,65
2018-01-22T13:39:07.552Z,70
2018-01-22T13:40:17.699Z,65
2018-01-22T13:41:27.890Z,60
2018-01-22T13:42:38.017Z,50
2018-01-22T13:43:48.148Z,50
2018-01-22T13:44:58.397Z,55
2018-01-22T13:46:08.551Z,60
2018-01-22T13:47:18.683Z,65
2018-01-22T13:48:28.815Z,65
2018-01-22T13:49:38.962Z,55
2018-01-22T13:50:49.082Z,50
2018-01-22T13:51:59.247Z,45
2018-01-22T13:53:09.162Z,50
2018-01-22T13:54:19.382Z,50
2018-01-22T13:55:29.548Z,60
2018-01-22T13:56:39.797Z,65
2018-01-22T13:57:49.668Z,70
2018-01-22T13:58:59.804Z,65
2018-01-22T14:00:09.924Z,55
2018-01-22T14:01:20.097Z,55
2018-01-22T14:02:30.333Z,55
2018-01-22T14:03:40.559Z,60
2018-01-22T14:04:50.750Z,50
2018-01-22T14:06:00.909Z,40
2018-01-22T14:07:11.257Z,40
2018-01-22T14:08:21.465Z,35
2018-01-22T14:09:31.592Z,40
2018-01-22T14:10:41.854Z,35
2018-01-22T14:11:52.024Z,35
2018-01-22T14:13:02.153Z,40
2018-01-22T14:14:12.233Z,40
2018-01-22T14:15:22.361Z,35
2018-01-22T14:16:32.552Z,40
2018-01-22T14:17:42.740Z,40
2018-01-22T14:18:52.912Z,35
2018-01-22T14:20:03.060Z,30
2018-01-22T14:21:13.234Z,25
2018-01-22T14:22:23.581Z,30
2018-01-22T14:23:33.753Z,30
2018-01-22T14:24:43.561Z,25
2018-01-22T14:25:53.690Z,25
2018-01-22T14:27:03.680Z,25
2018-01-22T14:28:13.840Z,20
2018-01-22T14:29:24.079Z,20
2018-01-22T14:30:34.216Z,25
2018-01-22T14:31:44.327Z,25
2018-01-22T14:32:54.449Z,25
2018-01-22T14:34:04.576Z,25
2018-01-22T14:35:14.729Z,35
2018-01-22T14:36:24.871Z,30
2018-01-22T14:37:35.049Z,35
2018-01-22T14:38:45.190Z,30
2018-01-22T14:39:55.354Z,35
2018-01-22T14:41:05.597Z,40
2018-01-22T14:42:15.846Z,40
2018-01-22T14:43:25.998Z,40
2018-01-22T14:44:36.202Z,35
2018-01-22T14:45:46.336Z,35
2018-01-22T14:46:56.463Z,35
2018-01-22T14:48:06.629Z,35
2018-01-22T14:49:16.794Z,30
2018-01-22T14:50:27.003Z,30
2018-01-22T14:51:37.245Z,30
2018-01-22T14:52:47.378Z,25
2018-01-22T14:53:57.603Z,25
2018-01-22T14:55:07.794Z,25
2018-01-22T14:56:17.998Z,20
2018-01-22T14:57:28.169Z,20
2018-01-22T14:58:38.326Z,20
2018-01-22T14:59:48.472Z,20
2018-01-22T15:00:58.599Z,15
2018-01-22T15:02:08.838Z,20
2018-01-22T15:03:18.989Z,15
2018-01-22T15:04:29.291Z,15
2018-01-22T15:05:39.495Z,15
2018-01-22T15:06:49.660Z,15
2018-01-22T15:08:00.849Z,15
2018-01-22T15:09:10.985Z,10
2018-01-22T15:10:21.144Z,15
2018-01-22T15:11:31.386Z,10
2018-01-22T15:12:41.623Z,10
2018-01-22T15:13:51.631Z,10
2018-01-22T15:15:01.739Z,10
2018-01-22T15:16:11.882Z,10
2018-01-22T15:17:21.758Z,10
2018-01-22T15:18:31.899Z,10
2018-01-22T15:19:42.246Z,10
2018-01-22T15:20:52.367Z,5
2018-01-22T15:22:02.488Z,10
2018-01-22T15:23:12.776Z,5
2018-01-22T15:24:22.941Z,5
2018-01-22T15:25:33.107Z,5
2018-01-22T15:26:43.280Z,5
2018-01-22T15:27:53.556Z,5
2018-01-22T15:29:03.558Z,5
2018-01-22T15:30:13.712Z,5
2018-01-22T15:31:23.852Z,5
2018-01-22T15:32:33.982Z,5
2018-01-22T15:33:44.179Z,5
2018-01-22T15:34:54.352Z,5
2018-01-22T15:36:04.509Z,5
2018-01-22T15:37:14.665Z,0
2018-01-22T15:38:24.801Z,0
2018-01-22T15:39:35.073Z,0
2018-01-22T15:40:45.239Z,0
2018-01-22T15:41:55.386Z,0
2018-01-22T15:43:05.551Z,0
2018-01-22T15:44:15.721Z,0
2018-01-22T15:45:26.029Z,0
2018-01-22T15:46:36.181Z,0
2018-01-22T15:47:46.482Z,0
2018-01-22T15:48:56.635Z,0
2018-01-22T15:50:06.891Z,0
2018-01-22T15:51:17.071Z,0
2018-01-22T15:52:27.331Z,0
2018-01-22T15:53:37.238Z,0
2018-01-22T15:54:47.389Z,0
2018-01-22T15:55:57.549Z,0
2018-01-22T15:57:07.686Z,0
2018-01-22T15:58:17.932Z,0
2018-01-22T15:59:28.139Z,0
2018-01-22T16:00:38.320Z,0
2018-01-22T16:01:48.535Z,0
2018-01-22T16:02:58.700Z,0
2018-01-22T16:04:08.863Z,0
2018-01-22T16:05:19.012Z,0
2018-01-22T16:06:29.170Z,0
2018-01-22T16:07:39.383Z,0
2018-01-22T16:08:49.297Z,0
2018-01-22T16:09:59.256Z,0
2018-01-22T16:11:09.481Z,0
2018-01-22T16:12:19.696Z,0
2018-01-22T16:13:29.916Z,0
2018-01-22T16:14:40.129Z,0
2018-01-22T16:15:50.311Z,0
2018-01-22T16:17:00.477Z,0
2018-01-22T16:18:10.649Z,0
2018-01-22T16:19:20.820Z,0
2018-01-22T16:20:30.635Z,0
2018-01-22T16:21:40.916Z,0
2018-01-22T16:22:51.060Z,0
2018-01-22T16:24:01.258Z,0
2018-01-22T16:25:11.209Z,0
2018-01-22T16:26:21.378Z,0
2018-01-22T16:27:31.572Z,0
2018-01-22T16:28:41.749Z,0
2018-01-22T16:29:51.892Z,0
2018-01-22T16:31:02.079Z,0
2018-01-22T16:32:12.252Z,0
2018-01-22T16:33:22.145Z,0
2018-01-22T16:34:32.437Z,0
2018-01-22T16:35:42.648Z,0
2018-01-22T16:36:52.938Z,0
2018-01-22T16:38:03.137Z,0
2018-01-22T16:39:13.333Z,0
2018-01-22T16:40:23.505Z,0
2018-01-22T16:41:33.675Z,0
2018-01-22T16:42:43.909Z,0
2018-01-22T16:43:54.113Z,0
2018-01-22T16:45:04.331Z,0
2018-01-22T16:46:14.507Z,0
2018-01-22T16:47:24.790Z,0
2018-01-22T16:48:35.069Z,0
2018-01-22T16:49:45.333Z,0
2018-01-22T16:50:55.557Z,0